Housatonic River @ Stevenson, Ct

Housatonic River at Stevenson
 Total Drainage Area: 1,545 sq. miles 
 Drainage Area Controlled by Corps Dams: 0 sq. miles (0%) 
 Warning Flow/Stage: 13,700 cfs / 11.0 feet 
 Flood Flow/Stage: 27,200 cfs / 15.0 feet 
Date Time
(Eastern)
Stage
(ft)
Flow
(cfs)
CSM
(cfs / sq. mi.)
Jul-21 03:30 pm 2.50 470 .3
Jul-21 02:30 pm 2.50 470 .3
Jul-21 01:30 pm 2.51 473 .3
Jul-21 12:30 pm 2.51 473 .3
Jul-21 11:30 am 2.50 470 .3
Jul-21 10:30 am 2.53 481 .3
Jul-21 09:30 am 2.52 477 .3
Jul-21 08:30 am 2.52 477 .3
Jul-21 07:30 am 2.51 473 .3
Jul-21 06:30 am 2.52 477 .3
Jul-21 05:30 am 2.51 473 .3
Jul-21 04:30 am 2.50 470 .3
Jul-21 03:30 am 2.51 473 .3
Jul-21 02:30 am 2.51 473 .3
Jul-21 01:30 am 2.51 473 .3
Jul-21 12:30 am 2.52 477 .3
Jul-20 11:30 pm 2.52 477 .3
Jul-20 10:30 pm 2.53 481 .3
Jul-20 09:30 pm 2.65 524 .3
Jul-20 08:30 pm 4.37 1,538 1.0
Jul-20 07:30 pm 6.71 4,395 2.8
Jul-20 06:30 pm 6.70 4,380 2.8
Jul-20 05:30 pm 6.48 4,040 2.6
Jul-20 04:30 pm 3.92 1,191 .8
Jul-20 03:30 pm 2.48 463 .3
Report Generated July 21, 2024 04:37 pm